createdAt,value
2018-02-19T00:01:33.317Z,2.04
2018-02-19T00:04:01.758Z,1.95
2018-02-19T00:06:30.259Z,1.90
2018-02-19T00:08:58.697Z,1.90
2018-02-19T00:11:27.127Z,1.87
2018-02-19T00:13:55.595Z,1.82
2018-02-19T00:16:24.029Z,1.88
2018-02-19T00:18:52.477Z,1.89
2018-02-19T00:21:20.966Z,1.90
2018-02-19T00:23:49.425Z,1.84
2018-02-19T00:26:17.875Z,1.81
2018-02-19T00:28:46.378Z,1.92
2018-02-19T00:31:14.829Z,1.94
2018-02-19T00:33:43.292Z,1.83
2018-02-19T00:36:11.769Z,1.78
2018-02-19T00:38:40.222Z,1.89
2018-02-19T00:41:08.662Z,1.81
2018-02-19T00:43:37.140Z,1.79
2018-02-19T00:46:05.582Z,1.71
2018-02-19T00:48:34.040Z,1.74
2018-02-19T00:51:02.515Z,1.69
2018-02-19T00:53:30.973Z,1.68
2018-02-19T00:55:59.404Z,1.74
2018-02-19T00:58:27.869Z,1.77
2018-02-19T01:00:56.311Z,1.71
2018-02-19T01:03:24.760Z,1.71
2018-02-19T01:05:53.260Z,1.75
2018-02-19T01:08:21.706Z,1.72
2018-02-19T01:10:50.144Z,1.81
2018-02-19T01:13:18.620Z,1.69
2018-02-19T01:15:47.045Z,1.67
2018-02-19T01:18:15.485Z,1.68
2018-02-19T01:20:43.964Z,1.65
2018-02-19T01:23:12.408Z,1.70
2018-02-19T01:25:40.859Z,1.58
2018-02-19T01:28:09.563Z,1.58
2018-02-19T01:30:37.997Z,1.56
2018-02-19T01:33:06.441Z,1.64
2018-02-19T01:35:34.934Z,1.54
2018-02-19T01:38:03.378Z,1.49
2018-02-19T01:40:31.824Z,1.47
2018-02-19T01:43:00.309Z,1.48
2018-02-19T01:45:28.753Z,1.46
2018-02-19T01:47:57.203Z,1.54
2018-02-19T01:50:25.691Z,1.50
2018-02-19T01:52:54.132Z,1.47
2018-02-19T01:55:22.569Z,1.49
2018-02-19T01:57:51.063Z,1.47
2018-02-19T02:00:19.749Z,1.49
2018-02-19T02:02:48.186Z,1.46
2018-02-19T02:05:16.677Z,1.51
2018-02-19T02:07:45.135Z,1.44
2018-02-19T02:10:13.581Z,1.36
2018-02-19T02:12:42.051Z,1.37
2018-02-19T02:15:10.501Z,1.38
2018-02-19T02:17:38.948Z,1.41
2018-02-19T02:20:07.431Z,1.42
2018-02-19T02:22:35.868Z,1.41
2018-02-19T02:25:04.316Z,1.43
2018-02-19T02:27:32.786Z,1.43
2018-02-19T02:30:01.233Z,1.40
2018-02-19T02:32:29.695Z,1.41
2018-02-19T02:34:58.168Z,1.41
2018-02-19T02:37:26.607Z,1.42
2018-02-19T02:39:55.038Z,1.42
2018-02-19T02:42:23.521Z,1.46
2018-02-19T02:44:51.967Z,1.42
2018-02-19T02:47:20.417Z,1.41
2018-02-19T02:49:48.928Z,1.37
2018-02-19T02:52:17.366Z,1.36
2018-02-19T02:54:45.829Z,1.32
2018-02-19T02:57:14.300Z,1.27
2018-02-19T02:59:47.586Z,1.24
2018-02-19T03:02:16.080Z,1.18
2018-02-19T03:04:44.548Z,1.21
2018-02-19T03:07:12.982Z,1.16
2018-02-19T03:09:41.506Z,1.23
2018-02-19T03:12:09.934Z,1.17
2018-02-19T03:14:38.362Z,1.19
2018-02-19T03:17:06.849Z,1.12
2018-02-19T03:19:35.317Z,1.14
2018-02-19T03:22:03.743Z,1.23
2018-02-19T03:24:32.241Z,1.18
2018-02-19T03:27:00.681Z,1.21
2018-02-19T03:29:29.122Z,1.19
2018-02-19T03:31:57.611Z,1.19
2018-02-19T03:34:26.064Z,1.15
2018-02-19T03:36:54.503Z,1.18
2018-02-19T03:39:22.981Z,1.16
2018-02-19T03:41:51.419Z,1.17
2018-02-19T03:44:19.872Z,1.21
2018-02-19T03:46:48.363Z,1.20
2018-02-19T03:49:16.812Z,1.35
2018-02-19T03:51:45.250Z,1.25
2018-02-19T03:54:13.733Z,1.38
2018-02-19T03:56:42.173Z,1.46
2018-02-19T03:59:10.632Z,1.32
2018-02-19T04:01:39.098Z,1.29
2018-02-19T04:04:07.553Z,1.20
2018-02-19T04:06:35.984Z,1.22
2018-02-19T04:09:04.525Z,1.19
2018-02-19T04:11:32.978Z,1.14
2018-02-19T04:14:01.416Z,1.14
2018-02-19T04:16:30.111Z,1.15
2018-02-19T04:18:58.547Z,1.11
2018-02-19T04:21:26.993Z,1.03
2018-02-19T04:23:55.477Z,1.05
2018-02-19T04:26:23.928Z,1.07
2018-02-19T04:28:52.374Z,1.06
2018-02-19T04:31:20.864Z,1.01
2018-02-19T04:33:49.297Z,0.98
2018-02-19T04:36:17.736Z,1.02
2018-02-19T04:38:46.233Z,1.03
2018-02-19T04:41:14.666Z,1.12
2018-02-19T04:43:43.140Z,1.08
2018-02-19T04:46:12.473Z,1.03
2018-02-19T04:48:40.921Z,1.04
2018-02-19T04:51:09.371Z,1.02
2018-02-19T04:53:37.861Z,1.01
2018-02-19T04:56:06.302Z,0.99
2018-02-19T04:58:34.756Z,0.98
2018-02-19T05:01:03.278Z,1.00
2018-02-19T05:03:31.712Z,0.99
2018-02-19T05:06:00.161Z,0.96
2018-02-19T05:08:28.630Z,1.01
2018-02-19T05:10:57.061Z,1.06
2018-02-19T05:13:25.516Z,1.04
2018-02-19T05:15:54.028Z,1.05
2018-02-19T05:18:22.473Z,1.06
2018-02-19T05:20:50.922Z,1.03
2018-02-19T05:23:19.400Z,1.04
2018-02-19T05:25:47.834Z,1.02
2018-02-19T05:28:16.296Z,1.00
2018-02-19T05:30:44.770Z,0.99
2018-02-19T05:33:13.209Z,0.99
2018-02-19T05:35:41.657Z,0.99
2018-02-19T05:38:10.144Z,0.97
2018-02-19T05:40:38.596Z,0.99
2018-02-19T05:43:07.039Z,1.02
2018-02-19T05:45:35.531Z,1.17
2018-02-19T05:48:04.006Z,1.10
2018-02-19T05:50:32.453Z,1.08
2018-02-19T05:53:00.938Z,1.06
2018-02-19T05:55:29.391Z,1.05
2018-02-19T05:57:57.846Z,1.06
2018-02-19T06:00:26.305Z,1.09
2018-02-19T06:02:54.728Z,1.06
2018-02-19T06:05:23.174Z,1.01
2018-02-19T06:07:51.638Z,1.02
2018-02-19T06:10:20.133Z,1.02
2018-02-19T06:12:48.561Z,1.03
2018-02-19T06:15:17.027Z,1.01
2018-02-19T06:17:45.480Z,0.96
2018-02-19T06:20:13.899Z,0.99
2018-02-19T06:22:42.393Z,0.93
2018-02-19T06:25:10.822Z,0.98
2018-02-19T06:27:39.274Z,0.94
2018-02-19T06:30:07.760Z,0.93
2018-02-19T06:32:36.211Z,0.96
2018-02-19T06:35:04.669Z,0.98
2018-02-19T06:37:33.130Z,1.06
2018-02-19T06:40:01.576Z,1.02
2018-02-19T06:42:29.995Z,1.02
2018-02-19T06:44:58.463Z,1.08
2018-02-19T06:47:26.898Z,1.02
2018-02-19T06:49:55.346Z,1.08
2018-02-19T06:52:23.833Z,1.05
2018-02-19T06:54:52.256Z,1.05
2018-02-19T06:57:20.701Z,0.99
2018-02-19T06:59:49.181Z,0.99
2018-02-19T07:02:17.620Z,1.03
2018-02-19T07:04:46.053Z,1.01
2018-02-19T07:07:14.521Z,1.09
2018-02-19T07:09:42.972Z,1.04
2018-02-19T07:12:11.411Z,1.18
2018-02-19T07:14:39.873Z,1.21
2018-02-19T07:17:08.293Z,1.15
2018-02-19T07:19:36.765Z,1.16
2018-02-19T07:22:05.240Z,1.19
2018-02-19T07:24:33.670Z,1.14
2018-02-19T07:27:02.100Z,1.24
2018-02-19T07:29:30.588Z,1.30
2018-02-19T07:31:59.016Z,1.27
2018-02-19T07:34:27.448Z,1.27
2018-02-19T07:36:55.941Z,1.29
2018-02-19T07:39:24.362Z,1.31
2018-02-19T07:41:52.788Z,1.41
2018-02-19T07:44:21.309Z,1.45
2018-02-19T07:46:49.759Z,1.38
2018-02-19T07:49:18.208Z,1.38
2018-02-19T07:51:46.675Z,1.39
2018-02-19T07:54:15.098Z,1.32
2018-02-19T07:56:43.523Z,1.45
2018-02-19T07:59:12.006Z,1.44
2018-02-19T08:01:40.441Z,1.35
2018-02-19T08:04:08.891Z,1.32
2018-02-19T08:06:37.357Z,1.40
2018-02-19T08:09:05.821Z,1.43
2018-02-19T08:11:34.253Z,1.48
2018-02-19T08:14:02.733Z,1.65
2018-02-19T08:16:31.173Z,1.68
2018-02-19T08:18:59.606Z,1.73
2018-02-19T08:21:28.083Z,1.76
2018-02-19T08:23:56.601Z,1.76
2018-02-19T08:26:25.041Z,1.78
2018-02-19T08:28:53.515Z,1.80
2018-02-19T08:31:21.962Z,1.85
2018-02-19T08:33:50.421Z,1.91
2018-02-19T08:36:19.133Z,1.94
2018-02-19T08:38:47.573Z,1.99
2018-02-19T08:41:16.037Z,2.11
2018-02-19T08:43:44.527Z,2.06
2018-02-19T08:46:12.970Z,2.07
2018-02-19T08:48:41.432Z,2.10
2018-02-19T08:51:09.950Z,2.16
2018-02-19T08:53:38.398Z,2.14
2018-02-19T08:56:06.831Z,2.23
2018-02-19T08:58:35.306Z,2.27
2018-02-19T09:01:03.770Z,2.43
2018-02-19T09:03:32.197Z,2.46
2018-02-19T09:06:00.675Z,2.48
2018-02-19T09:08:29.105Z,2.55
2018-02-19T09:10:57.538Z,2.49
2018-02-19T09:13:25.998Z,2.48
2018-02-19T09:15:54.423Z,2.50
2018-02-19T09:18:23.186Z,2.61
2018-02-19T09:20:51.694Z,2.58
2018-02-19T09:23:20.129Z,2.68
2018-02-19T09:25:49.370Z,2.70
2018-02-19T09:28:17.870Z,2.70
2018-02-19T09:30:46.328Z,2.79
2018-02-19T09:33:14.769Z,2.89
2018-02-19T09:35:43.249Z,2.85
2018-02-19T09:38:11.735Z,2.80
2018-02-19T09:40:40.168Z,2.87
2018-02-19T09:43:08.640Z,2.88
2018-02-19T09:45:37.082Z,2.96
2018-02-19T09:48:05.521Z,3.02
2018-02-19T09:50:34.005Z,3.06
2018-02-19T09:53:02.486Z,3.14
2018-02-19T09:55:30.907Z,3.12
2018-02-19T09:57:59.390Z,3.23
2018-02-19T10:00:27.813Z,3.29
2018-02-19T10:02:56.247Z,3.32
2018-02-19T10:05:24.738Z,3.21
2018-02-19T10:07:53.186Z,3.33
2018-02-19T10:10:21.606Z,3.22
2018-02-19T10:12:50.091Z,3.06
2018-02-19T10:15:18.523Z,3.20
2018-02-19T10:17:46.964Z,3.11
2018-02-19T10:20:15.451Z,3.25
2018-02-19T10:22:43.881Z,3.18
2018-02-19T10:25:12.320Z,3.35
2018-02-19T10:27:40.799Z,3.41
2018-02-19T10:30:09.249Z,3.48
2018-02-19T10:32:37.698Z,3.61
2018-02-19T10:35:06.185Z,3.68
2018-02-19T10:37:34.605Z,3.68
2018-02-19T10:40:03.081Z,3.60
2018-02-19T10:42:31.565Z,3.55
2018-02-19T10:45:00.022Z,3.43
2018-02-19T10:47:28.463Z,3.40
2018-02-19T10:49:56.922Z,3.40
2018-02-19T10:52:25.377Z,3.35
2018-02-19T10:54:53.836Z,3.44
2018-02-19T10:57:22.339Z,3.37
2018-02-19T10:59:50.813Z,3.40
2018-02-19T11:02:19.264Z,3.31
2018-02-19T11:04:47.757Z,3.46
2018-02-19T11:07:16.200Z,3.51
2018-02-19T11:09:44.640Z,3.51
2018-02-19T11:12:13.110Z,3.50
2018-02-19T11:14:41.534Z,3.48
2018-02-19T11:17:09.974Z,3.37
2018-02-19T11:19:38.486Z,3.28
2018-02-19T11:22:06.939Z,3.38
2018-02-19T11:24:35.396Z,3.43
2018-02-19T11:27:03.910Z,3.59
2018-02-19T11:29:32.346Z,3.66
2018-02-19T11:32:00.766Z,3.70
2018-02-19T11:34:29.248Z,3.79
2018-02-19T11:36:57.691Z,3.75
2018-02-19T11:39:26.145Z,3.91
2018-02-19T11:41:54.649Z,3.91
2018-02-19T11:44:23.080Z,4.02
2018-02-19T11:46:51.564Z,3.96
2018-02-19T11:49:20.056Z,4.01
2018-02-19T11:51:48.532Z,3.89
2018-02-19T11:54:16.990Z,3.93
2018-02-19T11:56:45.471Z,3.83
2018-02-19T11:59:13.912Z,3.90
2018-02-19T12:01:42.341Z,3.97
2018-02-19T12:04:10.815Z,3.97
2018-02-19T12:06:39.241Z,3.97
2018-02-19T12:09:07.691Z,3.99
2018-02-19T12:11:36.177Z,4.12
2018-02-19T12:14:04.628Z,4.24
2018-02-19T12:16:33.090Z,4.29
2018-02-19T12:19:01.558Z,4.36
2018-02-19T12:21:29.993Z,4.46
2018-02-19T12:23:58.440Z,4.63
2018-02-19T12:26:26.906Z,4.68
2018-02-19T12:28:55.348Z,4.85
2018-02-19T12:31:23.788Z,4.89
2018-02-19T12:33:52.287Z,4.91
2018-02-19T12:36:20.757Z,4.93
2018-02-19T12:38:49.214Z,4.97
2018-02-19T12:41:17.701Z,5.02
2018-02-19T12:43:46.137Z,5.01
2018-02-19T12:46:14.596Z,5.03
2018-02-19T12:48:43.090Z,5.06
2018-02-19T12:51:11.559Z,5.25
2018-02-19T12:53:40.012Z,5.14
2018-02-19T12:56:08.621Z,5.18
2018-02-19T12:58:37.051Z,5.19
2018-02-19T13:01:05.494Z,5.04
2018-02-19T13:03:33.966Z,5.02
2018-02-19T13:06:02.391Z,5.02
2018-02-19T13:08:30.822Z,5.05
2018-02-19T13:10:59.342Z,5.14
2018-02-19T13:13:27.776Z,5.28
2018-02-19T13:15:56.241Z,5.22
2018-02-19T13:18:24.741Z,5.29
2018-02-19T13:20:53.200Z,5.28
2018-02-19T13:23:21.654Z,5.40
2018-02-19T13:25:50.141Z,5.47
2018-02-19T13:28:18.588Z,5.57
2018-02-19T13:30:47.031Z,5.54
2018-02-19T13:33:15.517Z,5.39
2018-02-19T13:35:43.968Z,5.44
2018-02-19T13:38:12.416Z,5.47
2018-02-19T13:40:40.874Z,5.37
2018-02-19T13:43:09.317Z,5.41
2018-02-19T13:45:37.746Z,5.43
2018-02-19T13:48:06.212Z,5.45
2018-02-19T13:50:34.654Z,5.31
2018-02-19T13:53:03.104Z,5.25
2018-02-19T13:55:31.597Z,5.23
2018-02-19T13:58:00.041Z,5.05
2018-02-19T14:00:28.504Z,5.07
2018-02-19T14:02:57.013Z,5.12
2018-02-19T14:05:25.458Z,5.06
2018-02-19T14:07:53.915Z,5.19
2018-02-19T14:10:22.386Z,5.07
2018-02-19T14:12:50.828Z,5.03
2018-02-19T14:15:19.277Z,5.03
2018-02-19T14:17:47.758Z,5.07
2018-02-19T14:20:16.201Z,5.08
2018-02-19T14:22:44.667Z,5.09
2018-02-19T14:25:13.154Z,5.03
2018-02-19T14:27:41.610Z,4.99
2018-02-19T14:30:10.061Z,4.94
2018-02-19T14:32:38.566Z,4.96
2018-02-19T14:35:06.995Z,4.96
2018-02-19T14:37:35.441Z,4.86
2018-02-19T14:40:03.952Z,4.93
2018-02-19T14:42:32.414Z,5.05
2018-02-19T14:45:00.840Z,5.17
2018-02-19T14:47:29.316Z,5.30
2018-02-19T14:49:57.757Z,5.48
2018-02-19T14:52:26.197Z,5.71
2018-02-19T14:54:54.679Z,5.86
2018-02-19T14:57:23.121Z,6.22
2018-02-19T14:59:51.574Z,6.57
2018-02-19T15:02:20.052Z,6.42
2018-02-19T15:04:48.499Z,6.59
2018-02-19T15:07:16.922Z,6.84
2018-02-19T15:09:45.416Z,6.86
2018-02-19T15:12:13.850Z,6.85
2018-02-19T15:14:42.279Z,6.87
2018-02-19T15:17:10.755Z,6.86
2018-02-19T15:19:39.178Z,6.64
2018-02-19T15:22:07.602Z,6.59
2018-02-19T15:24:36.081Z,6.84
2018-02-19T15:27:04.532Z,6.88
2018-02-19T15:29:32.974Z,6.82
2018-02-19T15:32:01.488Z,6.98
2018-02-19T15:34:29.920Z,6.88
2018-02-19T15:36:58.382Z,6.71
2018-02-19T15:39:26.841Z,6.53
2018-02-19T15:41:55.275Z,6.21
2018-02-19T15:44:23.715Z,6.07
2018-02-19T15:46:52.226Z,5.99
2018-02-19T15:49:20.689Z,5.88
2018-02-19T15:51:49.139Z,5.73
2018-02-19T15:54:17.627Z,5.78
2018-02-19T15:56:46.057Z,5.72
2018-02-19T15:59:14.497Z,5.58
2018-02-19T16:01:42.992Z,5.49
2018-02-19T16:04:11.465Z,5.40
2018-02-19T16:06:39.932Z,5.21
2018-02-19T16:09:08.406Z,5.15
2018-02-19T16:11:36.845Z,5.11
2018-02-19T16:14:05.266Z,4.98
2018-02-19T16:16:33.731Z,4.94
2018-02-19T16:19:02.167Z,4.93
2018-02-19T16:21:30.587Z,4.81
2018-02-19T16:23:59.062Z,4.84
2018-02-19T16:26:27.514Z,4.82
2018-02-19T16:28:55.941Z,4.74
2018-02-19T16:31:24.442Z,4.67
2018-02-19T16:33:52.889Z,4.62
2018-02-19T16:36:21.337Z,4.60
2018-02-19T16:38:49.846Z,4.53
2018-02-19T16:41:18.279Z,4.53
2018-02-19T16:43:46.706Z,4.44
2018-02-19T16:46:15.198Z,4.39
2018-02-19T16:48:43.629Z,4.38
2018-02-19T16:51:12.055Z,4.37
2018-02-19T16:53:40.548Z,4.34
2018-02-19T16:56:09.006Z,4.29
2018-02-19T16:58:37.439Z,4.24
2018-02-19T17:01:06.030Z,4.25
2018-02-19T17:03:34.485Z,4.33
2018-02-19T17:06:02.937Z,4.37
2018-02-19T17:08:31.414Z,4.35
2018-02-19T17:10:59.836Z,4.35
2018-02-19T17:13:28.280Z,4.31
2018-02-19T17:15:56.762Z,4.28
2018-02-19T17:18:25.254Z,4.27
2018-02-19T17:20:53.705Z,4.26
2018-02-19T17:23:22.209Z,4.13
2018-02-19T17:25:50.642Z,4.03
2018-02-19T17:28:19.077Z,4.02
2018-02-19T17:30:47.560Z,4.03
2018-02-19T17:33:16.012Z,3.98
2018-02-19T17:36:00.202Z,3.94
2018-02-19T17:38:28.690Z,3.85
2018-02-19T17:40:57.131Z,3.89
2018-02-19T17:43:25.640Z,3.90
2018-02-19T17:45:54.103Z,3.78
2018-02-19T17:48:23.477Z,3.73
2018-02-19T17:50:51.960Z,3.64
2018-02-19T17:53:20.403Z,3.64
2018-02-19T17:55:48.849Z,3.59
2018-02-19T17:58:17.414Z,3.60
2018-02-19T18:00:45.874Z,3.53
2018-02-19T18:03:14.337Z,3.52
2018-02-19T18:05:42.892Z,3.50
2018-02-19T18:08:11.350Z,3.37
2018-02-19T18:10:39.779Z,3.37
2018-02-19T18:13:08.326Z,3.31
2018-02-19T18:15:36.786Z,3.28
2018-02-19T18:18:05.290Z,3.31
2018-02-19T18:20:33.764Z,3.25
2018-02-19T18:23:02.193Z,3.25
2018-02-19T18:25:30.615Z,3.17
2018-02-19T18:27:59.109Z,3.17
2018-02-19T18:30:27.548Z,3.06
2018-02-19T18:32:56.011Z,3.04
2018-02-19T18:35:24.509Z,3.07
2018-02-19T18:37:52.950Z,3.02
2018-02-19T18:40:21.366Z,2.97
2018-02-19T18:42:49.850Z,2.95
2018-02-19T18:45:18.300Z,2.88
2018-02-19T18:47:46.732Z,2.78
2018-02-19T18:50:15.207Z,2.82
2018-02-19T18:52:43.652Z,2.82
2018-02-19T18:55:12.103Z,2.79
2018-02-19T18:57:40.614Z,2.79
2018-02-19T19:00:09.078Z,2.79
2018-02-19T19:02:37.533Z,2.82
2018-02-19T19:05:06.011Z,2.81
2018-02-19T19:07:46.357Z,2.74
2018-02-19T19:10:26.559Z,2.75
2018-02-19T19:12:55.020Z,2.76
2018-02-19T19:15:23.519Z,2.64
2018-02-19T19:17:52.028Z,2.61
2018-02-19T19:20:20.489Z,2.65
2018-02-19T19:22:48.956Z,2.65
2018-02-19T19:25:17.497Z,2.65
2018-02-19T19:27:45.994Z,2.66
2018-02-19T19:30:15.210Z,2.66
2018-02-19T19:32:43.703Z,2.71
2018-02-19T19:35:12.161Z,2.63
2018-02-19T19:37:40.656Z,2.61
2018-02-19T19:40:09.159Z,2.59
2018-02-19T19:42:37.614Z,2.61
2018-02-19T19:45:06.103Z,2.60
2018-02-19T19:47:34.603Z,2.60
2018-02-19T19:50:03.070Z,2.57
2018-02-19T19:52:31.522Z,2.58
2018-02-19T19:55:00.226Z,2.59
2018-02-19T19:57:28.657Z,2.59
2018-02-19T19:59:57.344Z,2.56
2018-02-19T20:02:25.850Z,2.59
2018-02-19T20:04:54.310Z,2.58
2018-02-19T20:07:22.766Z,2.57
2018-02-19T20:09:51.249Z,2.45
2018-02-19T20:12:19.697Z,2.43
2018-02-19T20:14:48.151Z,2.41
2018-02-19T20:20:10.707Z,2.34
2018-02-19T20:22:39.160Z,2.25
2018-02-19T20:25:07.620Z,2.26
2018-02-19T20:27:36.112Z,2.25
2018-02-19T20:30:04.581Z,2.35
2018-02-19T20:32:33.010Z,2.32
2018-02-19T20:35:01.529Z,2.34
2018-02-19T20:37:30.000Z,2.29
2018-02-19T20:39:58.475Z,2.32
2018-02-19T20:42:27.004Z,2.28
2018-02-19T20:44:55.474Z,2.32
2018-02-19T20:47:23.919Z,2.36
2018-02-19T20:49:52.422Z,2.40
2018-02-19T20:52:20.860Z,2.30
2018-02-19T20:54:49.284Z,2.32
2018-02-19T20:57:17.765Z,2.27
2018-02-19T20:59:46.198Z,2.30
2018-02-19T21:02:14.634Z,2.26
2018-02-19T21:04:43.147Z,2.31
2018-02-19T21:07:11.591Z,2.20
2018-02-19T21:09:40.041Z,2.23
2018-02-19T21:12:08.528Z,2.20
2018-02-19T21:14:37.254Z,2.19
2018-02-19T21:17:05.682Z,2.12
2018-02-19T21:19:34.156Z,2.18
2018-02-19T21:22:02.595Z,2.10
2018-02-19T21:24:31.038Z,2.12
2018-02-19T21:26:59.604Z,2.09
2018-02-19T21:29:28.047Z,2.08
2018-02-19T21:31:56.487Z,2.11
2018-02-19T21:34:25.003Z,2.04
2018-02-19T21:36:53.434Z,2.06
2018-02-19T21:39:21.880Z,2.04
2018-02-19T21:41:50.388Z,1.97
2018-02-19T21:44:18.832Z,1.97
2018-02-19T21:46:47.319Z,1.98
2018-02-19T21:49:15.802Z,2.00
2018-02-19T21:51:44.233Z,1.97
2018-02-19T21:54:12.680Z,1.94
2018-02-19T21:56:41.208Z,1.87
2018-02-19T21:59:09.643Z,1.92
2018-02-19T22:01:38.082Z,1.95
2018-02-19T22:04:06.583Z,2.05
2018-02-19T22:06:35.024Z,1.97
2018-02-19T22:09:03.578Z,1.97
2018-02-19T22:11:32.099Z,1.95
2018-02-19T22:14:00.575Z,1.90
2018-02-19T22:16:29.026Z,1.86
2018-02-19T22:18:57.537Z,1.85
2018-02-19T22:21:26.001Z,1.92
2018-02-19T22:23:54.443Z,1.89
2018-02-19T22:26:22.911Z,1.88
2018-02-19T22:28:51.352Z,1.84
2018-02-19T22:31:19.817Z,1.80
2018-02-19T22:33:48.297Z,1.86
2018-02-19T22:36:16.711Z,1.89
2018-02-19T22:38:45.143Z,1.88
2018-02-19T22:41:13.617Z,1.85
2018-02-19T22:43:42.067Z,1.90
2018-02-19T22:46:10.536Z,1.89
2018-02-19T22:48:39.194Z,1.82
2018-02-19T22:51:07.610Z,1.83
2018-02-19T22:53:36.058Z,1.76
2018-02-19T22:56:04.542Z,1.72
2018-02-19T22:58:32.982Z,1.72
2018-02-19T23:01:01.408Z,1.71
2018-02-19T23:03:29.900Z,1.82
2018-02-19T23:05:58.330Z,1.83
2018-02-19T23:08:26.775Z,1.79
2018-02-19T23:10:55.272Z,1.70
2018-02-19T23:13:23.704Z,1.62
2018-02-19T23:15:52.142Z,1.61
2018-02-19T23:18:20.637Z,1.61
2018-02-19T23:20:49.071Z,1.63
2018-02-19T23:23:17.506Z,1.50
2018-02-19T23:25:45.971Z,1.45
2018-02-19T23:28:14.421Z,1.35
2018-02-19T23:30:42.860Z,1.29
2018-02-19T23:33:11.324Z,1.31
2018-02-19T23:35:39.801Z,1.26
2018-02-19T23:38:08.239Z,1.27
2018-02-19T23:40:36.710Z,1.28
2018-02-19T23:43:05.146Z,1.27
2018-02-19T23:45:33.574Z,1.17
2018-02-19T23:48:02.135Z,1.14
2018-02-19T23:50:30.579Z,1.10
2018-02-19T23:52:59.022Z,1.09
2018-02-19T23:55:27.501Z,1.09
2018-02-19T23:57:55.943Z,1.04
